Time;durP1;ratioP1;P1;durP2;ratioP2;P2;SDS_P1;SDS_P2;PMS_P1;PMS_P2;Temp;Humidity;BMP_temperature;BMP_pressure;BME280_temperature;BME280_humidity;BME280_pressure;Samples;Min_cycle;Max_cycle;Signal;HPM_P1;HPM_P2
2021/07/18 07:39:54;;;;;;;;;;;;;;;;;;;;;
2021/07/18 07:43:29;;;;;;;;;;;;;;;;;;;;;
2021/07/18 07:47:25;;;;;;;10.30;5.80;;;;;;;28.06;43.32;96850.94;127618;1095;62550;-89
2021/07/18 07:51:59;;;;;;;11.63;6.30;;;;;;;28.20;43.33;96849.38;127584;1093;62611;-89
2021/07/18 07:55:13;;;;;;;;;;;;;;;;;;;;;
2021/07/18 07:58:44;;;;;;;16.50;6.10;;;;;;;28.57;43.17;96845.64;128196;1093;61350;-92
2021/07/18 08:02:15;;;;;;;13.10;7.30;;;;;;;28.77;42.49;96851.61;127521;1092;62651;-91
2021/07/18 08:05:52;;;;;;;11.00;5.85;;;;;;;28.96;42.21;96853.99;127519;1092;62590;-90
2021/07/18 08:09:43;;;;;;;12.07;6.80;;;;;;;29.09;41.86;96856.58;127335;1092;62758;-91
2021/07/18 08:13:08;;;;;;;14.40;6.57;;;;;;;29.28;42.05;96850.35;127219;1092;62548;-90
2021/07/18 08:16:48;;;;;;;14.27;6.13;;;;;;;29.60;40.48;96858.08;127210;1092;62613;-90
2021/07/18 08:20:18;;;;;;;9.85;5.70;;;;;;;30.63;38.52;96840.24;127709;1092;62588;-91
2021/07/18 08:24:20;;;;;;;;;;;;;;;;;;;;;
2021/07/18 08:27:38;;;;;;;12.13;5.60;;;;;;;35.07;31.13;96845.08;127284;1092;62601;-90
2021/07/18 08:31:38;;;;;;;;;;;;;;;;;;;;;
2021/07/18 08:34:54;;;;;;;10.07;5.40;;;;;;;37.62;27.72;96833.97;127307;1095;62537;-89
2021/07/18 08:38:29;;;;;;;10.95;5.18;;;;;;;38.33;26.93;96831.89;127310;1092;62821;-91
2021/07/18 08:42:17;;;;;;;;;;;;;;;;;;;;;
2021/07/18 08:45:57;;;;;;;;;;;;;;;;;;;;;
2021/07/18 08:49:20;;;;;;;10.60;5.00;;;;;;;35.35;30.35;96833.85;127378;1092;62609;-89
2021/07/18 08:53:25;;;;;;;;;;;;;;;;;;;;;
2021/07/18 08:56:53;;;;;;;;;;;;;;;;;;;;;
2021/07/18 09:00:27;;;;;;;;;;;;;;;;;;;;;
2021/07/18 09:03:59;;;;;;;8.85;4.90;;;;;;;41.40;22.30;96816.48;127523;1092;62575;-90
2021/07/18 09:07:42;;;;;;;;;;;;;;;;;;;;;
2021/07/18 09:11:03;;;;;;;9.85;4.50;;;;;;;44.79;18.12;96820.48;127312;1092;62540;-90
2021/07/18 09:14:47;;;;;;;;;;;;;;;;;;;;;
2021/07/18 09:18:26;;;;;;;10.65;4.50;;;;;;;48.44;14.17;96809.78;127079;1095;62658;-89
2021/07/18 09:21:55;;;;;;;7.45;4.20;;;;;;;49.91;14.23;96805.55;127344;1095;62587;-89
2021/07/18 09:25:35;;;;;;;;;;;;;;;;;;;;;
2021/07/18 09:28:58;;;;;;;9.60;4.53;;;;;;;51.77;12.46;96801.03;127911;1095;62548;-89
2021/07/18 09:32:30;;;;;;;8.43;4.40;;;;;;;52.39;12.08;96795.49;127261;1098;62548;-89
2021/07/18 09:36:05;;;;;;;9.45;4.45;;;;;;;52.80;11.70;96787.78;127441;1098;62613;-88
2021/07/18 09:39:57;;;;;;;;;;;;;;;;;;;;;
2021/07/18 09:43:30;;;;;;;;;;;;;;;;;;;;;
2021/07/18 09:47:01;;;;;;;;;;;;;;;;;;;;;
2021/07/18 09:50:25;;;;;;;8.03;3.90;;;;;;;47.19;15.32;96780.47;126995;1098;62708;-90
2021/07/18 09:54:07;;;;;;;9.70;4.35;;;;;;;44.60;17.42;96784.28;127118;1095;62559;-90
2021/07/18 09:57:49;;;;;;;12.35;4.85;;;;;;;42.09;19.12;96783.39;127249;1095;62687;-90
2021/07/18 10:01:24;;;;;;;9.45;4.53;;;;;;;40.04;21.68;96767.46;126855;1098;62620;-89
2021/07/18 10:05:03;;;;;;;8.70;5.00;;;;;;;38.79;24.49;96781.39;126951;1098;62619;-88
2021/07/18 10:08:37;;;;;;;;;;;;;;;;;;;;;
2021/07/18 10:12:08;;;;;;;;;;;;;;;;;;;;;
2021/07/18 10:15:27;;;;;;;8.53;4.50;;;;;;;36.77;26.96;96770.19;127396;1095;62572;-89
2021/07/18 10:18:55;;;;;;;8.98;4.00;;;;;;;36.45;25.30;96777.05;127280;1095;62669;-89
2021/07/18 10:22:26;;;;;;;7.27;4.50;;;;;;;36.22;26.53;96777.86;127143;1095;62455;-89
2021/07/18 10:26:14;;;;;;;;;;;;;;;;;;;;;
2021/07/18 10:29:32;;;;;;;8.70;4.40;;;;;;;36.13;26.27;96775.91;127248;1095;62691;-88
2021/07/18 10:33:07;;;;;;;13.90;5.00;;;;;;;36.21;26.08;96774.23;127097;1095;62566;-89
2021/07/18 10:36:35;;;;;;;13.93;5.00;;;;;;;36.26;24.91;96773.08;127162;1094;62722;-91
2021/07/18 10:40:08;;;;;;;12.40;4.70;;;;;;;36.01;25.09;96768.05;127465;1092;62585;-89
2021/07/18 10:44:04;;;;;;;12.13;4.73;;;;;;;35.60;25.44;96767.02;127085;1095;62626;-90
2021/07/18 10:47:45;;;;;;;;;;;;;;;;;;;;;
2021/07/18 10:51:10;;;;;;;8.35;4.70;;;;;;;35.51;26.37;96760.01;127124;1095;62613;-89
2021/07/18 10:54:42;;;;;;;10.25;4.95;;;;;;;35.61;26.42;96759.88;127108;1095;62604;-88
2021/07/18 10:58:16;;;;;;;9.00;4.63;;;;;;;35.56;25.60;96753.13;127923;1095;62583;-90
2021/07/18 11:02:00;;;;;;;;;;;;;;;;;;;;;
2021/07/18 11:05:19;;;;;;;9.87;4.77;;;;;;;35.64;25.57;96756.48;126899;1098;62610;-89
2021/07/18 11:08:47;;;;;;;9.87;4.40;;;;;;;35.61;25.24;96746.23;126874;1098;62909;-89
2021/07/18 11:12:18;;;;;;;12.13;5.00;;;;;;;35.63;26.19;96748.48;126920;1098;62590;-88
2021/07/18 11:15:56;;;;;;;8.93;4.50;;;;;;;35.78;26.59;96741.44;126840;1098;62668;-88
2021/07/18 11:19:24;;;;;;;9.03;4.70;;;;;;;35.40;26.78;96737.77;126538;1100;62610;-89
2021/07/18 11:22:50;;;;;;;8.80;4.40;;;;;;;35.36;26.89;96744.01;126835;1098;62604;-89
2021/07/18 11:26:22;;;;;;;10.45;4.80;;;;;;;35.48;25.96;96726.73;126829;1098;62931;-89
2021/07/18 11:30:13;;;;;;;10.50;5.25;;;;;;;35.54;26.36;96735.72;126786;1098;62533;-89
2021/07/18 11:33:57;;;;;;;;;;;;;;;;;;;;;
2021/07/18 11:37:17;;;;;;;9.40;4.75;;;;;;;35.41;25.29;96728.50;126836;1096;63102;-88
2021/07/18 11:40:45;;;;;;;10.27;4.90;;;;;;;34.88;26.15;96730.26;126455;1101;62569;-89
2021/07/18 11:44:28;;;;;;;;;;;;;;;;;;;;;
2021/07/18 11:47:56;;;;;;;;;;;;;;;;;;;;;
2021/07/18 11:51:41;;;;;;;;;;;;;;;;;;;;;
2021/07/18 11:54:59;;;;;;;10.75;4.90;;;;;;;35.52;25.57;96709.69;127318;1100;62623;-89
2021/07/18 11:58:41;;;;;;;;;;;;;;;;;;;;;
2021/07/18 12:02:12;;;;;;;;;;;;;;;;;;;;;
2021/07/18 12:05:43;;;;;;;;;;;;;;;;;;;;;
2021/07/18 12:09:09;;;;;;;;;;;;;;;;;;;;;
2021/07/18 12:12:27;;;;;;;7.80;5.07;;;;;;;38.24;23.59;96711.45;127114;1098;62735;-89
2021/07/18 12:16:06;;;;;;;;;;;;;;;;;;;;;
2021/07/18 12:19:25;;;;;;;8.60;4.60;;;;;;;40.19;20.76;96699.97;127442;1095;62582;-90
2021/07/18 12:22:54;;;;;;;15.00;5.10;;;;;;;41.64;18.80;96689.52;127394;1092;62610;-90
2021/07/18 12:26:31;;;;;;;;;;;;;;;;;;;;;
2021/07/18 12:29:50;;;;;;;13.37;4.90;;;;;;;44.07;17.51;96693.92;127630;1092;62694;-88
2021/07/18 12:33:28;;;;;;;;;;;;;;;;;;;;;
2021/07/18 12:36:56;;;;;;;;;;;;;;;;;;;;;
2021/07/18 12:40:19;;;;;;;11.18;4.73;;;;;;;48.35;13.80;96676.15;127497;1092;62603;-90
2021/07/18 12:43:47;;;;;;;8.10;4.63;;;;;;;48.33;13.64;96676.14;127445;1092;62654;-89
2021/07/18 12:47:35;;;;;;;7.97;4.43;;;;;;;48.89;13.22;96666.20;127293;1092;62922;-88
2021/07/18 12:51:06;;;;;;;9.65;4.58;;;;;;;49.47;12.90;96664.97;127392;1092;62591;-90
2021/07/18 12:54:36;;;;;;;11.23;4.60;;;;;;;49.86;12.46;96657.69;127436;1092;62615;-88
2021/07/18 12:58:10;;;;;;;9.20;4.55;;;;;;;50.12;12.44;96647.43;127436;1092;62607;-89
2021/07/18 13:01:47;;;;;;;10.30;5.00;;;;;;;50.42;12.43;96647.39;127485;1092;62887;-88
2021/07/18 13:05:21;;;;;;;9.27;4.57;;;;;;;51.12;11.47;96632.47;129155;1092;60897;-91
2021/07/18 13:09:08;;;;;;;;;;;;;;;;;;;;;
2021/07/18 13:12:30;;;;;;;9.33;4.17;;;;;;;51.84;11.14;96640.15;127507;1090;62636;-89
2021/07/18 13:15:58;;;;;;;11.30;4.40;;;;;;;52.34;10.71;96643.42;127422;1092;62608;-89
2021/07/18 13:19:47;;;;;;;;;;;;;;;;;;;;;
2021/07/18 13:23:07;;;;;;;10.55;4.40;;;;;;;52.90;10.19;96617.72;127487;1092;62548;-90
2021/07/18 13:26:50;;;;;;;9.93;4.45;;;;;;;53.15;9.68;96618.91;127466;1092;62556;-90
2021/07/18 13:30:22;;;;;;;8.27;4.17;;;;;;;52.78;10.53;96613.42;127499;1092;62589;-90
2021/07/18 13:34:00;;;;;;;;;;;;;;;;;;;;;
2021/07/18 13:37:27;;;;;;;8.65;4.10;;;;;;;52.69;9.87;96614.27;127430;1092;62642;-89
2021/07/18 13:41:16;;;;;;;12.00;4.18;;;;;;;51.16;10.59;96603.69;127492;1092;62630;-89
2021/07/18 13:44:42;;;;;;;11.18;4.90;;;;;;;50.31;11.44;96609.87;127509;1092;62618;-88
2021/07/18 13:48:20;;;;;;;;;;;;;;;;;;;;;
2021/07/18 13:51:38;;;;;;;10.50;4.60;;;;;;;50.48;11.27;96597.34;127447;1092;62606;-90
2021/07/18 13:55:06;;;;;;;12.75;4.98;;;;;;;50.76;10.72;96586.94;127798;1092;62565;-90
2021/07/18 13:58:34;;;;;;;9.33;4.08;;;;;;;51.10;11.02;96582.38;127541;1092;62601;-89
2021/07/18 14:02:03;;;;;;;12.18;4.13;;;;;;;51.55;10.83;96586.52;127458;1092;62639;-89
2021/07/18 14:05:41;;;;;;;;;;;;;;;;;;;;;
2021/07/18 14:09:12;;;;;;;;;;;;;;;;;;;;;
2021/07/18 14:12:40;;;;;;;;;;;;;;;;;;;;;
2021/07/18 14:16:12;;;;;;;;;;;;;;;;;;;;;
2021/07/18 14:19:32;;;;;;;10.23;4.23;;;;;;;49.55;11.68;96591.45;127726;1092;62611;-90
2021/07/18 14:23:12;;;;;;;;;;;;;;;;;;;;;
2021/07/18 14:26:35;;;;;;;11.90;4.83;;;;;;;48.68;11.96;96592.69;127609;1092;62561;-90
2021/07/18 14:30:00;;;;;;;10.85;4.60;;;;;;;48.18;12.24;96601.16;127540;1092;62617;-90
2021/07/18 14:33:50;;;;;;;;;;;;;;;;;;;;;
2021/07/18 14:37:09;;;;;;;16.63;4.75;;;;;;;46.97;13.01;96590.48;127484;1092;62568;-89
2021/07/18 14:40:41;;;;;;;12.48;4.85;;;;;;;45.24;14.40;96589.96;127577;1092;62544;-88
2021/07/18 14:44:28;;;;;;;8.40;4.80;;;;;;;44.70;15.06;96581.59;127536;1090;62633;-88
2021/07/18 14:48:07;;;;;;;;;;;;;;;;;;;;;
2021/07/18 14:51:35;;;;;;;;;;;;;;;;;;;;;
2021/07/18 14:55:06;;;;;;;;;;;;;;;;;;;;;
2021/07/18 14:58:37;;;;;;;10.73;5.03;;;;;;;45.77;14.38;96551.47;127602;1092;62639;-89
2021/07/18 15:02:06;;;;;;;8.47;4.60;;;;;;;45.85;14.51;96550.14;127706;1092;62596;-90
2021/07/18 15:05:52;;;;;;;10.90;4.37;;;;;;;45.70;14.94;96552.09;127796;1092;62572;-89
2021/07/18 15:09:20;;;;;;;11.25;4.70;;;;;;;45.84;14.50;96548.66;128434;1092;62571;-89
2021/07/18 15:13:08;;;;;;;;;;;;;;;;;;;;;
2021/07/18 15:16:32;;;;;;;9.50;4.40;;;;;;;43.99;16.43;96543.58;127648;1092;62655;-89
2021/07/18 15:20:12;;;;;;;;;;;;;;;;;;;;;
2021/07/18 15:23:27;;;;;;;9.27;4.53;;;;;;;45.65;14.79;96533.75;128697;1092;63057;-90
2021/07/18 15:26:56;;;;;;;12.83;4.90;;;;;;;45.90;14.39;96537.05;127670;1092;62914;-90
2021/07/18 15:30:27;;;;;;;12.90;4.98;;;;;;;45.11;15.34;96537.17;127647;1092;62606;-89
2021/07/18 15:34:01;;;;;;;8.70;4.33;;;;;;;43.82;16.12;96538.81;127510;1092;62627;-91
2021/07/18 15:37:32;;;;;;;9.45;4.68;;;;;;;42.70;16.87;96546.75;127458;1092;62569;-90
2021/07/18 15:41:06;;;;;;;10.20;4.80;;;;;;;41.01;18.50;96547.92;127385;1092;62607;-89
2021/07/18 15:44:36;;;;;;;8.80;4.37;;;;;;;39.81;19.67;96542.63;127411;1092;62577;-89
2021/07/18 15:48:06;;;;;;;9.30;4.87;;;;;;;39.18;21.33;96549.48;127556;1092;62553;-89
2021/07/18 15:51:35;;;;;;;12.35;4.65;;;;;;;38.80;21.36;96547.80;127429;1092;62625;-89
2021/07/18 15:55:18;;;;;;;;;;;;;;;;;;;;;
2021/07/18 15:58:35;;;;;;;10.23;5.00;;;;;;;37.83;22.56;96539.00;127547;1092;62568;-90
2021/07/18 16:02:04;;;;;;;12.65;5.10;;;;;;;37.75;22.78;96544.41;127405;1092;62608;-88
2021/07/18 16:05:44;;;;;;;;;;;;;;;;;;;;;
2021/07/18 16:09:16;;;;;;;8.23;5.00;;;;;;;37.16;24.10;96542.20;127149;1092;62657;-89
2021/07/18 16:12:57;;;;;;;;;;;;;;;;;;;;;
2021/07/18 16:16:15;;;;;;;16.10;6.33;;;;;;;38.16;23.16;96531.86;127187;1092;62607;-89
2021/07/18 16:19:43;;;;;;;11.53;5.07;;;;;;;37.89;23.40;96524.87;127288;1092;62630;-89
2021/07/18 16:23:11;;;;;;;12.50;5.00;;;;;;;37.38;23.53;96536.84;127253;1092;62626;-88
2021/07/18 16:26:42;;;;;;;9.17;4.80;;;;;;;36.72;24.43;96532.00;127238;1092;62595;-89
2021/07/18 16:30:12;;;;;;;10.53;4.93;;;;;;;36.33;25.60;96540.02;127212;1092;62674;-89
2021/07/18 16:33:45;;;;;;;11.90;4.73;;;;;;;35.58;26.05;96540.22;127103;1092;62655;-88
2021/07/18 16:37:14;;;;;;;14.50;5.43;;;;;;;34.95;27.39;96556.69;127262;1092;62693;-89
2021/07/18 16:40:44;;;;;;;11.60;5.47;;;;;;;34.47;28.19;96549.51;127795;1092;62665;-89
2021/07/18 16:44:12;;;;;;;11.00;5.40;;;;;;;33.99;29.26;96552.20;127264;1092;62592;-89
2021/07/18 16:47:40;;;;;;;13.17;5.40;;;;;;;33.40;30.86;96551.28;127101;1092;62601;-90
2021/07/18 16:51:08;;;;;;;12.43;5.20;;;;;;;33.04;31.53;96547.48;127978;1092;62537;-89
2021/07/18 16:54:38;;;;;;;11.60;4.83;;;;;;;32.71;32.01;96550.26;127235;1091;62613;-89
2021/07/18 16:58:06;;;;;;;10.33;5.30;;;;;;;32.46;32.17;96548.58;127159;1092;62571;-90
2021/07/18 17:01:34;;;;;;;10.30;5.43;;;;;;;32.29;32.74;96548.06;127284;1092;62620;-90
2021/07/18 17:04:43;;;;;;;;;;;;;;;32.09;33.65;96547.38;127290;1092;62633;-88
2021/07/18 17:08:11;;;;;;;8.13;4.80;;;;;;;31.88;33.81;96556.64;127139;1092;62820;-89
2021/07/18 17:11:40;;;;;;;12.68;5.35;;;;;;;31.61;33.90;96556.09;127221;1092;62604;-89
2021/07/18 17:15:18;;;;;;;;;;;;;;;;;;;;;
2021/07/18 17:18:46;;;;;;;;;;;;;;;;;;;;;
2021/07/18 17:22:07;;;;;;;13.73;7.20;;;;;;;30.57;39.69;96560.53;127059;1092;63015;-89
2021/07/18 17:25:32;;;;;;;14.30;8.43;;;;;;;30.04;41.57;96564.27;127260;1092;62611;-90
2021/07/18 17:29:01;;;;;;;15.13;6.90;;;;;;;29.63;42.57;96566.73;127167;1092;62568;-89
2021/07/18 17:32:31;;;;;;;18.78;11.25;;;;;;;29.43;42.66;96562.19;127116;1092;62603;-88
2021/07/18 17:35:59;;;;;;;15.23;7.80;;;;;;;29.23;42.59;96572.70;127171;1092;62610;-88
2021/07/18 17:39:27;;;;;;;10.03;6.23;;;;;;;29.13;42.02;96566.94;127133;1092;62655;-88
2021/07/18 17:42:59;;;;;;;13.05;6.45;;;;;;;29.06;41.54;96567.02;127072;1092;62687;-87
2021/07/18 17:46:28;;;;;;;14.10;6.35;;;;;;;29.05;41.25;96560.56;127233;1092;62684;-88
2021/07/18 17:49:57;;;;;;;12.18;6.43;;;;;;;29.04;40.84;96564.75;127287;1092;62530;-88
2021/07/18 17:53:37;;;;;;;;;;;;;;;;;;;;;
2021/07/18 17:57:07;;;;;;;;;;;;;;;;;;;;;
2021/07/18 18:00:29;;;;;;;18.35;7.25;;;;;;;28.92;41.26;96575.16;127098;1092;62578;-89
2021/07/18 18:04:02;;;;;;;15.13;6.43;;;;;;;28.85;41.60;96573.10;127113;1092;62623;-90
2021/07/18 18:07:30;;;;;;;17.35;10.03;;;;;;;28.69;42.66;96588.83;127268;1092;62613;-88
2021/07/18 18:11:04;;;;;;;14.97;6.60;;;;;;;28.52;42.34;96587.46;127267;1092;62626;-89
2021/07/18 18:14:42;;;;;;;;;;;;;;;;;;;;;
2021/07/18 18:18:00;;;;;;;14.70;6.85;;;;;;;28.38;42.11;96591.97;127238;1092;62719;-91
2021/07/18 18:21:40;;;;;;;14.43;7.55;;;;;;;28.33;42.31;96598.63;127926;1092;62595;-88
2021/07/18 18:24:57;;;;;;;13.57;7.33;;;;;;;28.24;43.48;96605.70;127173;1092;62642;-88
2021/07/18 18:28:26;;;;;;;14.17;6.43;;;;;;;28.13;42.88;96613.94;127275;1092;62546;-89
2021/07/18 18:31:54;;;;;;;13.77;5.93;;;;;;;28.04;42.82;96625.97;127252;1092;62556;-89
2021/07/18 18:35:24;;;;;;;14.00;6.30;;;;;;;28.05;43.08;96630.31;127334;1092;62675;-90
2021/07/18 18:39:02;;;;;;;;;;;;;;;;;;;;;
2021/07/18 18:42:21;;;;;;;10.93;6.20;;;;;;;27.95;43.30;96639.47;127279;1092;62600;-89
2021/07/18 18:45:54;;;;;;;12.55;5.85;;;;;;;27.97;43.39;96636.80;127202;1092;62532;-88
2021/07/18 18:49:19;;;;;;;14.30;6.27;;;;;;;27.92;43.38;96626.40;127357;1092;62620;-88
2021/07/18 18:52:52;;;;;;;11.43;6.23;;;;;;;28.10;43.31;96629.33;127642;1092;62748;-89
2021/07/18 18:56:35;;;;;;;;;;;;;;;;;;;;;
2021/07/18 18:59:52;;;;;;;12.25;6.20;;;;;;;28.04;43.71;96603.95;127595;1092;62913;-90
2021/07/18 19:03:31;;;;;;;;;;;;;;;;;;;;;
2021/07/18 19:06:54;;;;;;;11.63;6.57;;;;;;;28.14;43.38;96629.67;127950;1092;62610;-90
2021/07/18 19:10:33;;;;;;;9.00;6.30;;;;;;;28.25;44.29;96649.16;127470;1095;62564;-93
2021/07/18 19:14:01;;;;;;;53.40;7.70;;;;;;;27.85;44.08;96746.69;128732;1095;61572;-90
2021/07/18 19:17:36;;;;;;;17.95;6.30;;;;;;;26.24;61.70;96704.67;127545;1095;62771;-90
2021/07/18 19:21:37;;;;;;;;;;;;;;;21.62;90.71;96617.98;106615;1095;69958328;-90
2021/07/18 19:25:40;;;;;;;;;;;;;;;;;;;;;
2021/07/18 19:29:09;;;;;;;;;;;;;;;;;;;;;
2021/07/18 19:32:28;;;;;;;10.38;5.75;;;;;;;19.67;86.24;127937.20;127010;1095;370048;-91
2021/07/18 19:36:22;;;;;;;;;;;;;;;;;;;;;
2021/07/18 19:39:56;;;;;;;;;;;;;;;;;;;;;
2021/07/18 19:43:35;;;;;;;;;;;;;;;;;;;;;
2021/07/18 19:46:51;;;;;;;12.43;5.73;;;;;;;;;;39720;1092;94944079;-91
2021/07/18 19:50:30;;;;;;;;;;;;;;;;;;;;;
2021/07/18 19:53:57;;;;;;;11.27;6.03;;;;;;;19.63;70.87;96751.53;127716;1092;63897;-92
2021/07/18 19:57:43;;;;;;;;;;;;;;;;;;;;;
2021/07/18 20:01:30;;;;;;;10.93;5.73;;;;;;;19.66;70.51;96714.74;127509;1092;63844;-92
2021/07/18 20:05:04;;;;;;;;;;;;;;;;;;;;;
2021/07/18 20:08:22;;;;;;;11.20;5.67;;;;;;;19.32;71.53;96697.26;127487;1092;62626;-90
2021/07/18 20:12:02;;;;;;;;;;;;;;;;;;;;;
2021/07/18 20:15:20;;;;;;;9.63;6.10;;;;;;;19.59;73.07;96699.21;127323;1092;62556;-90
2021/07/18 20:18:58;;;;;;;17.33;8.27;;;;;;;19.75;74.29;96699.61;127416;1092;62697;-90
2021/07/18 20:22:36;;;;;;;;;;;;;;;;;;;;;
2021/07/18 20:25:57;;;;;;;10.33;7.07;;;;;;;20.09;72.12;96684.06;127546;1092;62578;-89
2021/07/18 20:29:37;;;;;;;;;;;;;;;;;;;;;
2021/07/18 20:32:55;;;;;;;14.48;7.98;;;;;;;20.41;71.59;96684.34;127545;1092;62645;-90
2021/07/18 20:36:24;;;;;;;11.00;6.63;;;;;;;20.45;71.37;96690.44;127413;1092;62611;-90
2021/07/18 20:39:57;;;;;;;13.10;7.30;;;;;;;20.40;71.43;96701.72;127208;1092;62550;-88
2021/07/18 20:43:28;;;;;;;10.63;7.80;;;;;;;20.46;71.90;96700.40;127161;1089;62619;-90
2021/07/18 20:47:06;;;;;;;;;;;;;;;;;;;;;
2021/07/18 20:50:45;;;;;;;14.37;9.17;;;;;;;20.70;72.29;96719.38;127187;1092;62604;-89
2021/07/18 20:58:04;;;;;;;11.43;7.10;;;;;;;20.81;71.42;96724.88;127227;1092;62603;-89
2021/07/18 21:01:33;;;;;;;11.30;7.30;;;;;;;20.93;71.49;96730.41;127082;1095;62740;-90
2021/07/18 21:05:01;;;;;;;10.43;7.37;;;;;;;21.09;71.37;96732.29;127021;1095;62716;-90
2021/07/18 21:08:29;;;;;;;10.10;7.10;;;;;;;21.24;71.08;96735.48;128655;1095;62684;-91
2021/07/18 21:12:04;;;;;;;11.80;7.07;;;;;;;21.42;70.49;96731.19;127502;1095;62582;-88
2021/07/18 21:15:32;;;;;;;13.43;7.50;;;;;;;21.57;69.96;96737.14;127401;1095;61794;-88
2021/07/18 21:19:00;;;;;;;15.77;7.60;;;;;;;21.68;69.65;96747.49;127049;1095;62607;-88
2021/07/18 21:22:29;;;;;;;9.10;7.17;;;;;;;21.74;69.67;96779.20;127121;1095;62708;-89
2021/07/18 21:25:59;;;;;;;10.90;7.57;;;;;;;21.77;69.16;96795.03;127846;1095;62687;-87
2021/07/18 21:29:28;;;;;;;9.30;7.03;;;;;;;21.78;68.83;96793.74;127436;1095;62610;-88
2021/07/18 21:32:56;;;;;;;11.03;7.30;;;;;;;21.85;67.45;96784.67;126986;1095;63029;-87
2021/07/18 21:36:23;;;;;;;11.20;7.07;;;;;;;21.53;68.75;96800.69;126867;1095;62670;-87
2021/07/18 21:39:53;;;;;;;11.33;7.37;;;;;;;21.43;68.62;96805.17;127201;1092;62614;-85
2021/07/18 21:43:21;;;;;;;11.30;6.85;;;;;;;21.21;68.97;96820.22;127296;1092;62595;-86
2021/07/18 21:46:49;;;;;;;9.60;6.70;;;;;;;21.09;68.85;96811.11;127190;1092;62603;-87
2021/07/18 21:50:16;;;;;;;9.93;5.90;;;;;;;21.22;67.74;96797.16;127452;1092;62620;-86
2021/07/18 21:53:47;;;;;;;10.00;7.37;;;;;;;21.39;68.02;96783.70;127204;1092;62632;-87
2021/07/18 21:57:21;;;;;;;10.67;6.30;;;;;;;21.45;66.99;96763.91;127096;1092;62699;-90
2021/07/18 22:00:49;;;;;;;11.23;7.27;;;;;;;21.55;66.63;96767.14;127150;1092;62542;-86
2021/07/18 22:04:17;;;;;;;11.77;7.50;;;;;;;21.64;67.42;96775.97;127103;1092;62601;-85
2021/07/18 22:07:45;;;;;;;9.83;7.33;;;;;;;21.68;68.65;96770.03;127072;1091;62572;-86
2021/07/18 22:11:13;;;;;;;11.43;7.63;;;;;;;21.71;68.30;96768.97;127127;1092;62556;-86
2021/07/18 22:14:41;;;;;;;12.37;8.10;;;;;;;21.73;68.73;96777.67;127083;1092;62623;-88
2021/07/18 22:18:09;;;;;;;14.37;8.93;;;;;;;21.72;69.21;96759.22;127037;1092;62677;-87
2021/07/18 22:21:38;;;;;;;14.60;9.40;;;;;;;21.67;69.18;96751.61;127125;1092;62623;-87
2021/07/18 22:25:06;;;;;;;10.40;8.53;;;;;;;21.61;69.34;96748.11;127196;1092;62588;-88
2021/07/18 22:28:35;;;;;;;11.00;8.03;;;;;;;21.47;70.01;96749.30;127215;1092;62665;-87
2021/07/18 22:32:05;;;;;;;11.07;7.43;;;;;;;21.46;69.77;96742.14;127257;1092;62596;-88
2021/07/18 22:35:33;;;;;;;12.57;8.13;;;;;;;21.49;70.03;96741.84;127203;1092;62719;-87
2021/07/18 22:39:01;;;;;;;20.10;8.13;;;;;;;21.57;69.74;96742.78;127049;1092;62574;-88
2021/07/18 22:42:30;;;;;;;11.63;8.30;;;;;;;21.55;69.69;96744.61;127243;1092;62617;-89
2021/07/18 22:45:58;;;;;;;12.93;7.83;;;;;;;21.49;70.62;96732.63;127242;1090;62565;-87
2021/07/18 22:49:26;;;;;;;10.30;8.70;;;;;;;21.23;71.94;96738.80;127185;1092;62592;-88
2021/07/18 22:52:54;;;;;;;10.27;8.00;;;;;;;21.10;71.43;96733.81;127075;1092;62718;-86
2021/07/18 22:56:22;;;;;;;10.57;8.37;;;;;;;21.11;71.44;96735.34;127294;1092;62604;-87
2021/07/18 22:59:50;;;;;;;12.73;8.40;;;;;;;21.16;72.37;96737.32;128767;1092;61046;-86
2021/07/18 23:03:18;;;;;;;11.00;8.93;;;;;;;21.25;71.51;96734.19;127212;1092;62691;-87
2021/07/18 23:06:51;;;;;;;11.83;8.55;;;;;;;21.34;71.26;96736.63;127182;1092;62599;-86
2021/07/18 23:10:19;;;;;;;11.93;9.03;;;;;;;21.45;70.92;96729.36;127178;1092;62764;-89
2021/07/18 23:13:46;;;;;;;15.30;9.20;;;;;;;21.50;71.47;96725.70;127196;1092;62607;-88
2021/07/18 23:17:16;;;;;;;13.00;9.63;;;;;;;21.51;71.69;96725.17;127240;1092;62610;-86
2021/07/18 23:20:44;;;;;;;14.73;9.47;;;;;;;21.53;71.83;96719.77;127179;1092;62601;-88
2021/07/18 23:24:12;;;;;;;15.63;8.60;;;;;;;21.45;71.97;96727.30;127072;1092;62673;-87
2021/07/18 23:27:53;;;;;;;;;;;;;;;;;;;;;
2021/07/18 23:31:08;;;;;;;13.57;8.90;;;;;;;21.19;72.49;96718.64;127220;1092;62556;-88
2021/07/18 23:34:58;;;;;;;;;;;;;;;;;;;;;
2021/07/18 23:38:16;;;;;;;12.17;8.60;;;;;;;21.13;72.05;96721.49;127229;1092;62592;-89
2021/07/18 23:41:45;;;;;;;15.10;9.30;;;;;;;21.16;72.11;96706.36;127244;1092;62668;-87
2021/07/18 23:45:13;;;;;;;12.00;8.90;;;;;;;21.15;72.61;96718.91;127331;1092;62600;-88
2021/07/18 23:48:42;;;;;;;16.03;8.67;;;;;;;21.15;72.12;96707.65;128371;1092;62613;-88
2021/07/18 23:52:12;;;;;;;13.30;9.00;;;;;;;21.26;72.71;96718.82;127351;1092;62703;-87
2021/07/18 23:55:41;;;;;;;14.20;9.33;;;;;;;21.24;72.08;96718.59;127213;1092;62606;-87
2021/07/18 23:59:11;;;;;;;11.45;8.85;;;;;;;21.23;71.74;96733.94;127068;1092;62620;-87
